Time;durP1;ratioP1;P1;durP2;ratioP2;P2;SDS_P1;SDS_P2;PMS_P1;PMS_P2;Temp;Humidity;BMP_temperature;BMP_pressure;BME280_temperature;BME280_humidity;BME280_pressure;Samples;Min_cycle;Max_cycle;Signal;HPM_P1;HPM_P2
2021/06/06 00:01:24;;;;;;;38.00;33.10;;;;;;;;;;5053533;28;20444;-60
2021/06/06 00:03:54;;;;;;;39.13;32.90;;;;;;;;;;5053200;28;20464;-59
2021/06/06 00:06:21;;;;;;;39.47;33.93;;;;;;;;;;5053306;28;20490;-59
2021/06/06 00:08:48;;;;;;;39.93;35.47;;;;;;;;;;5052759;28;20529;-59
2021/06/06 00:11:16;;;;;;;42.00;34.60;;;;;;;;;;5052846;28;20523;-59
2021/06/06 00:13:44;;;;;;;36.87;32.87;;;;;;;;;;5052829;28;21049;-59
2021/06/06 00:16:11;;;;;;;38.50;33.97;;;;;;;;;;5053049;28;20502;-59
2021/06/06 00:18:38;;;;;;;40.17;34.70;;;;;;;;;;5052800;28;20928;-59
2021/06/06 00:21:07;;;;;;;37.80;33.70;;;;;;;;;;5052739;28;20444;-60
2021/06/06 00:23:33;;;;;;;40.50;34.27;;;;;;;;;;5054499;28;20463;-59
2021/06/06 00:26:00;;;;;;;42.43;36.37;;;;;;;;;;5056818;28;20443;-59
2021/06/06 00:28:27;;;;;;;44.63;36.03;;;;;;;;;;5057031;28;20475;-60
2021/06/06 00:30:54;;;;;;;41.63;35.37;;;;;;;;;;5057101;28;20439;-59
2021/06/06 00:33:21;;;;;;;42.60;35.03;;;;;;;;;;5056792;28;20537;-59
2021/06/06 00:35:47;;;;;;;42.90;35.60;;;;;;;;;;5057322;28;20464;-59
2021/06/06 00:38:16;;;;;;;42.43;36.37;;;;;;;;;;5057174;28;20452;-59
2021/06/06 00:40:42;;;;;;;44.07;36.20;;;;;;;;;;5057092;28;20443;-59
2021/06/06 00:43:10;;;;;;;45.50;35.17;;;;;;;;;;5057346;28;20466;-59
2021/06/06 00:45:37;;;;;;;46.77;34.93;;;;;;;;;;5056607;28;20936;-59
2021/06/06 00:48:04;;;;;;;48.57;37.03;;;;;;;;;;5056744;28;20444;-59
2021/06/06 00:50:33;;;;;;;46.37;34.93;;;;;;;;;;5056434;28;20539;-59
2021/06/06 00:53:02;;;;;;;52.93;39.23;;;;;;;;;;5056292;28;20436;-59
2021/06/06 00:55:30;;;;;;;50.50;38.70;;;;;;;;;;5056549;28;20444;-59
2021/06/06 00:57:57;;;;;;;51.57;38.27;;;;;;;;;;5056487;28;20466;-59
2021/06/06 01:00:25;;;;;;;51.80;41.97;;;;;;;;;;5056398;28;20440;-59
2021/06/06 01:02:52;;;;;;;51.13;40.37;;;;;;;;;;5056485;28;20490;-61
2021/06/06 01:05:36;;;;;;;52.73;41.17;;;;;;;;;;5056426;28;20451;-59
2021/06/06 01:08:03;;;;;;;54.93;40.07;;;;;;;;;;5056437;28;20837;-59
2021/06/06 01:10:31;;;;;;;58.70;42.50;;;;;;;;;;5056318;28;20529;-59
2021/06/06 01:13:01;;;;;;;60.67;44.83;;;;;;;;;;5055924;28;20462;-60
2021/06/06 01:15:31;;;;;;;64.30;45.30;;;;;;;;;;5056234;28;20448;-59
2021/06/06 01:18:02;;;;;;;62.47;44.63;;;;;;;;;;5056185;28;20420;-59
2021/06/06 01:20:33;;;;;;;57.63;42.63;;;;;;;;;;5056771;28;20497;-59
2021/06/06 01:23:06;;;;;;;64.73;46.13;;;;;;;;;;5056163;28;20424;-59
2021/06/06 01:25:35;;;;;;;64.10;44.93;;;;;;;;;;5056134;28;20494;-59
2021/06/06 01:28:05;;;;;;;62.73;45.97;;;;;;;;;;5055758;28;20817;-59
2021/06/06 01:30:34;;;;;;;65.33;46.20;;;;;;;;;;5055987;28;20903;-59
2021/06/06 01:33:02;;;;;;;61.30;46.80;;;;;;;;;;5055728;28;20497;-60
2021/06/06 01:35:31;;;;;;;63.10;46.07;;;;;;;;;;5054858;28;20437;-59
2021/06/06 01:38:00;;;;;;;67.17;46.77;;;;;;;;;;5055840;28;20518;-59
2021/06/06 01:40:29;;;;;;;69.53;47.10;;;;;;;;;;5055434;28;20440;-59
2021/06/06 01:42:59;;;;;;;70.67;48.23;;;;;;;;;;5055354;28;20455;-59
2021/06/06 01:45:28;;;;;;;69.60;48.40;;;;;;;;;;5055422;28;20794;-59
2021/06/06 01:47:59;;;;;;;77.03;52.40;;;;;;;;;;5055685;28;20471;-59
2021/06/06 01:50:27;;;;;;;82.20;51.90;;;;;;;;;;5056175;28;20464;-59
2021/06/06 01:52:55;;;;;;;69.50;52.10;;;;;;;;;;5055453;28;20440;-59
2021/06/06 01:55:22;;;;;;;81.60;51.90;;;;;;;;;;5055497;28;20796;-59
2021/06/06 01:57:50;;;;;;;75.90;49.77;;;;;;;;;;5055088;28;20455;-59
2021/06/06 02:00:24;;;;;;;73.63;50.87;;;;;;;;;;5055451;28;20474;-59
2021/06/06 02:02:51;;;;;;;72.37;48.53;;;;;;;;;;5055503;28;20428;-59
2021/06/06 02:05:18;;;;;;;69.77;50.00;;;;;;;;;;5055485;28;20499;-59
2021/06/06 02:07:46;;;;;;;71.37;49.30;;;;;;;;;;5055425;28;20447;-59
2021/06/06 02:10:20;;;;;;;67.77;49.33;;;;;;;;;;5055004;28;20476;-59
2021/06/06 02:12:48;;;;;;;67.53;48.43;;;;;;;;;;5055281;28;20482;-60
2021/06/06 02:15:18;;;;;;;66.13;47.10;;;;;;;;;;5055218;28;20447;-59
2021/06/06 02:17:46;;;;;;;71.67;46.87;;;;;;;;;;5054874;28;20812;-59
2021/06/06 02:20:15;;;;;;;71.87;46.17;;;;;;;;;;5055129;28;20448;-59
2021/06/06 02:22:41;;;;;;;68.90;47.23;;;;;;;;;;5055080;28;20467;-61
2021/06/06 02:25:11;;;;;;;66.70;46.83;;;;;;;;;;5055081;28;20444;-59
2021/06/06 02:27:38;;;;;;;62.10;45.60;;;;;;;;;;5055021;28;20448;-59
2021/06/06 02:30:11;;;;;;;56.83;41.60;;;;;;;;;;5054637;28;21002;-59
2021/06/06 02:32:40;;;;;;;55.97;43.33;;;;;;;;;;5054970;28;20452;-59
2021/06/06 02:35:10;;;;;;;58.53;43.40;;;;;;;;;;5079825;22;20491;-62
2021/06/06 02:37:41;;;;;;;61.13;45.30;;;;;;;;;;5054706;28;20493;-62
2021/06/06 02:40:10;;;;;;;60.30;44.30;;;;;;;;;;5054499;28;20424;-62
2021/06/06 02:42:41;;;;;;;64.90;44.70;;;;;;;;;;5054260;28;20936;-62
2021/06/06 02:45:09;;;;;;;73.63;46.70;;;;;;;;;;5054490;28;20467;-63
2021/06/06 02:47:37;;;;;;;68.13;45.47;;;;;;;;;;5053398;28;20444;-63
2021/06/06 02:50:07;;;;;;;66.10;46.37;;;;;;;;;;5054451;28;20517;-63
2021/06/06 02:52:41;;;;;;;66.50;48.60;;;;;;;;;;5054106;28;20440;-62
2021/06/06 02:55:10;;;;;;;65.13;44.90;;;;;;;;;;5054335;28;20479;-62
2021/06/06 02:57:37;;;;;;;60.97;44.60;;;;;;;;;;5054191;28;20440;-62
2021/06/06 03:00:08;;;;;;;58.47;44.80;;;;;;;;;;5053936;28;20448;-62
2021/06/06 03:02:37;;;;;;;62.33;44.77;;;;;;;;;;5054982;28;20448;-62
2021/06/06 03:05:05;;;;;;;53.60;42.23;;;;;;;;;;5053628;28;20979;-61
2021/06/06 03:07:35;;;;;;;59.00;40.70;;;;;;;;;;5054108;28;20443;-61
2021/06/06 03:10:04;;;;;;;61.77;44.30;;;;;;;;;;5054491;28;20486;-60
2021/06/06 03:12:31;;;;;;;57.90;42.80;;;;;;;;;;5054531;28;20806;-62
2021/06/06 03:14:59;;;;;;;58.93;42.00;;;;;;;;;;5055132;28;20526;-62
2021/06/06 03:17:28;;;;;;;60.00;43.27;;;;;;;;;;5055305;28;20561;-60
2021/06/06 03:19:56;;;;;;;59.17;40.47;;;;;;;;;;5054848;28;20928;-62
2021/06/06 03:22:26;;;;;;;53.30;39.90;;;;;;;;;;5055720;28;20501;-63
2021/06/06 03:24:54;;;;;;;52.20;39.13;;;;;;;;;;5054589;28;20517;-60
2021/06/06 03:27:24;;;;;;;61.70;44.67;;;;;;;;;;5053615;28;20450;-61
2021/06/06 03:29:57;;;;;;;55.93;40.27;;;;;;;;;;5053967;28;20476;-61
2021/06/06 03:32:27;;;;;;;52.00;40.60;;;;;;;;;;5053813;28;20440;-62
2021/06/06 03:34:53;;;;;;;51.30;39.40;;;;;;;;;;5053214;28;20502;-61
2021/06/06 03:37:20;;;;;;;54.33;40.17;;;;;;;;;;5053548;28;20509;-60
2021/06/06 03:39:47;;;;;;;53.47;39.00;;;;;;;;;;5053549;28;20451;-62
2021/06/06 03:42:14;;;;;;;52.93;39.83;;;;;;;;;;5053638;28;20519;-62
2021/06/06 03:44:43;;;;;;;50.73;38.40;;;;;;;;;;5053683;28;20466;-61
2021/06/06 03:47:09;;;;;;;48.33;36.83;;;;;;;;;;5053367;28;20794;-62
2021/06/06 03:49:36;;;;;;;41.30;36.70;;;;;;;;;;5053495;28;20830;-62
2021/06/06 03:52:04;;;;;;;43.60;35.50;;;;;;;;;;5053693;28;20440;-61
2021/06/06 03:54:31;;;;;;;39.13;34.00;;;;;;;;;;5053568;28;20464;-62
2021/06/06 03:56:57;;;;;;;42.20;33.80;;;;;;;;;;5053872;28;20444;-61
2021/06/06 03:59:24;;;;;;;42.87;34.87;;;;;;;;;;5053445;28;20463;-62
2021/06/06 04:01:53;;;;;;;42.73;35.10;;;;;;;;;;5053727;28;20448;-62
2021/06/06 04:04:20;;;;;;;43.10;36.10;;;;;;;;;;5078801;22;20846;-59
2021/06/06 04:08:10;;;;;;;43.10;34.90;;;;;;;;;;5153284;27;20880;-58
2021/06/06 04:10:37;;;;;;;50.43;38.63;;;;;;;;;;5152474;27;20488;-58
2021/06/06 04:13:04;;;;;;;42.07;35.80;;;;;;;;;;5152672;27;20804;-59
2021/06/06 04:15:31;;;;;;;49.40;38.83;;;;;;;;;;5131841;27;20464;-58
2021/06/06 04:17:58;;;;;;;50.13;38.60;;;;;;;;;;5141518;22;20519;-57
2021/06/06 04:20:25;;;;;;;46.63;39.07;;;;;;;;;;5111371;28;20445;-57
2021/06/06 04:22:52;;;;;;;53.50;38.80;;;;;;;;;;5110643;28;20429;-57
2021/06/06 04:25:22;;;;;;;50.33;40.50;;;;;;;;;;5110892;28;20555;-58
2021/06/06 04:27:49;;;;;;;50.60;40.83;;;;;;;;;;5125251;28;20492;-57
2021/06/06 04:30:16;;;;;;;46.20;36.60;;;;;;;;;;5131253;28;20501;-58
2021/06/06 04:32:43;;;;;;;54.50;42.17;;;;;;;;;;5131228;28;20441;-57
2021/06/06 04:35:10;;;;;;;60.17;42.50;;;;;;;;;;5158206;22;20463;-58
2021/06/06 04:37:37;;;;;;;51.87;39.00;;;;;;;;;;5110681;28;20433;-57
2021/06/06 04:40:04;;;;;;;53.43;40.07;;;;;;;;;;5111719;28;20446;-58
2021/06/06 04:42:32;;;;;;;54.40;42.37;;;;;;;;;;5110615;28;20441;-58
2021/06/06 04:44:59;;;;;;;53.93;42.03;;;;;;;;;;5112148;28;20445;-60
2021/06/06 04:47:26;;;;;;;52.60;39.67;;;;;;;;;;5130935;28;20501;-59
2021/06/06 04:49:52;;;;;;;49.20;38.73;;;;;;;;;;5156149;22;20960;-58
2021/06/06 04:52:19;;;;;;;55.23;41.57;;;;;;;;;;5130600;27;20805;-58
2021/06/06 04:54:46;;;;;;;49.40;38.80;;;;;;;;;;5130895;27;20445;-58
2021/06/06 04:57:13;;;;;;;48.90;38.83;;;;;;;;;;5130772;27;20525;-58
2021/06/06 04:59:41;;;;;;;52.97;42.03;;;;;;;;;;5144663;27;21009;-58
2021/06/06 05:02:09;;;;;;;53.33;39.73;;;;;;;;;;5151307;27;20517;-58
2021/06/06 05:04:36;;;;;;;53.87;40.40;;;;;;;;;;5151285;27;20458;-58
2021/06/06 05:07:03;;;;;;;52.07;37.77;;;;;;;;;;5151148;27;20479;-58
2021/06/06 05:09:30;;;;;;;50.10;39.90;;;;;;;;;;5183688;22;20979;-60
2021/06/06 05:11:57;;;;;;;52.27;40.50;;;;;;;;;;5130392;28;20464;-59
2021/06/06 05:14:24;;;;;;;54.70;41.17;;;;;;;;;;5131900;28;20812;-59
2021/06/06 05:16:52;;;;;;;51.00;41.17;;;;;;;;;;5130401;28;20441;-59
2021/06/06 05:19:19;;;;;;;56.37;41.80;;;;;;;;;;5117764;28;20449;-59
2021/06/06 05:21:46;;;;;;;53.03;42.63;;;;;;;;;;5116210;28;20453;-59
2021/06/06 05:24:12;;;;;;;56.43;41.63;;;;;;;;;;5116619;28;20448;-59
2021/06/06 05:26:39;;;;;;;56.57;42.33;;;;;;;;;;5141799;22;20553;-58
2021/06/06 05:29:06;;;;;;;53.53;41.20;;;;;;;;;;5116308;28;20446;-58
2021/06/06 05:31:33;;;;;;;60.20;41.37;;;;;;;;;;5116247;28;20506;-59
2021/06/06 05:34:01;;;;;;;56.23;42.43;;;;;;;;;;5116355;28;20450;-58
2021/06/06 05:36:28;;;;;;;61.67;44.17;;;;;;;;;;5116253;28;20460;-59
2021/06/06 05:38:55;;;;;;;54.07;39.90;;;;;;;;;;5116338;28;20445;-58
2021/06/06 05:41:22;;;;;;;59.90;44.83;;;;;;;;;;5116466;28;20448;-58
2021/06/06 05:43:48;;;;;;;62.40;44.80;;;;;;;;;;5116306;28;20892;-59
2021/06/06 05:46:17;;;;;;;54.40;40.73;;;;;;;;;;5152275;22;20980;-58
2021/06/06 05:48:43;;;;;;;53.67;40.97;;;;;;;;;;5117460;28;20453;-60
2021/06/06 05:51:12;;;;;;;49.80;38.70;;;;;;;;;;5116244;28;20441;-58
2021/06/06 05:53:38;;;;;;;46.90;38.43;;;;;;;;;;5115729;28;20445;-57
2021/06/06 05:56:07;;;;;;;49.87;36.40;;;;;;;;;;5116028;28;20811;-58
2021/06/06 05:58:34;;;;;;;41.67;34.83;;;;;;;;;;5116093;28;20456;-58
2021/06/06 06:01:01;;;;;;;42.17;34.60;;;;;;;;;;5115742;28;20445;-57
2021/06/06 06:03:28;;;;;;;44.30;33.60;;;;;;;;;;5116053;28;20447;-58
2021/06/06 06:05:54;;;;;;;45.13;35.27;;;;;;;;;;5115634;28;20972;-58
2021/06/06 06:08:25;;;;;;;45.50;34.30;;;;;;;;;;5115473;28;20486;-59
2021/06/06 06:10:53;;;;;;;42.07;33.43;;;;;;;;;;5115820;28;20422;-59
2021/06/06 06:13:21;;;;;;;39.50;32.17;;;;;;;;;;5115705;28;20444;-59
2021/06/06 06:15:47;;;;;;;43.07;32.80;;;;;;;;;;5115669;28;20457;-58
2021/06/06 06:18:15;;;;;;;41.97;34.63;;;;;;;;;;5115552;28;20437;-58
2021/06/06 06:20:42;;;;;;;41.83;31.43;;;;;;;;;;5131772;22;20486;-58
2021/06/06 06:23:08;;;;;;;39.23;32.20;;;;;;;;;;5155069;22;20471;-58
2021/06/06 06:25:37;;;;;;;37.33;30.20;;;;;;;;;;5115929;28;20474;-58
2021/06/06 06:28:04;;;;;;;36.00;29.63;;;;;;;;;;5115708;28;20473;-58
2021/06/06 06:30:33;;;;;;;36.67;31.47;;;;;;;;;;5114550;28;20437;-58
2021/06/06 06:33:00;;;;;;;39.20;29.70;;;;;;;;;;5115229;28;20446;-58
2021/06/06 06:35:28;;;;;;;36.73;30.43;;;;;;;;;;5115320;28;20445;-58
2021/06/06 06:37:55;;;;;;;37.33;31.00;;;;;;;;;;5114911;28;20929;-58
2021/06/06 06:40:23;;;;;;;40.00;31.40;;;;;;;;;;5115387;28;20441;-58
2021/06/06 06:42:51;;;;;;;34.27;27.27;;;;;;;;;;5114906;28;20445;-58
2021/06/06 06:45:19;;;;;;;35.40;27.63;;;;;;;;;;5114786;28;20438;-59
2021/06/06 06:47:45;;;;;;;35.47;26.83;;;;;;;;;;5115752;28;20500;-59
2021/06/06 06:50:13;;;;;;;30.77;25.30;;;;;;;;;;5115023;28;20445;-58
2021/06/06 06:52:40;;;;;;;28.23;24.17;;;;;;;;;;5115000;28;20498;-58
2021/06/06 06:55:07;;;;;;;28.63;25.00;;;;;;;;;;5115859;28;20976;-58
2021/06/06 06:57:34;;;;;;;27.37;23.47;;;;;;;;;;5114724;28;20442;-59
2021/06/06 07:00:05;;;;;;;29.13;23.60;;;;;;;;;;5115820;28;20968;-58
2021/06/06 07:02:32;;;;;;;26.43;23.33;;;;;;;;;;5114759;28;20429;-58
2021/06/06 07:04:59;;;;;;;27.40;22.93;;;;;;;;;;5140089;22;20485;-59
2021/06/06 07:07:26;;;;;;;28.53;22.33;;;;;;;;;;5115456;28;20484;-60
2021/06/06 07:09:53;;;;;;;27.03;22.73;;;;;;;;;;5114124;28;20889;-59
2021/06/06 07:12:20;;;;;;;25.57;22.23;;;;;;;;;;5114520;28;20933;-59
2021/06/06 07:14:46;;;;;;;26.00;21.17;;;;;;;;;;5115045;28;20803;-59
2021/06/06 07:17:15;;;;;;;25.47;21.40;;;;;;;;;;5114185;28;20921;-59
2021/06/06 07:19:41;;;;;;;24.23;21.60;;;;;;;;;;5114280;28;20442;-59
2021/06/06 07:22:08;;;;;;;23.03;20.33;;;;;;;;;;5114357;28;20456;-59
2021/06/06 07:24:35;;;;;;;21.57;19.27;;;;;;;;;;5114324;28;20530;-59
2021/06/06 07:27:02;;;;;;;22.57;20.17;;;;;;;;;;5114150;28;20480;-59
2021/06/06 07:29:30;;;;;;;27.00;19.47;;;;;;;;;;5130366;22;20851;-59
2021/06/06 07:31:58;;;;;;;21.53;19.23;;;;;;;;;;5113819;28;20994;-59
2021/06/06 07:34:28;;;;;;;20.53;18.00;;;;;;;;;;5127087;22;20490;-58
2021/06/06 07:36:55;;;;;;;21.53;18.30;;;;;;;;;;5093631;28;20438;-58
2021/06/06 07:39:22;;;;;;;23.90;19.73;;;;;;;;;;5094097;28;20441;-58
2021/06/06 07:41:49;;;;;;;22.03;19.00;;;;;;;;;;5093207;28;20450;-57
2021/06/06 07:44:17;;;;;;;22.97;17.37;;;;;;;;;;5093322;28;20463;-57
2021/06/06 07:46:43;;;;;;;19.60;17.30;;;;;;;;;;5093627;28;20897;-57
2021/06/06 07:49:10;;;;;;;23.63;18.70;;;;;;;;;;5130824;22;20497;-57
2021/06/06 07:51:39;;;;;;;20.83;17.67;;;;;;;;;;5113501;28;20814;-57
2021/06/06 07:54:06;;;;;;;18.40;16.50;;;;;;;;;;5113487;28;20948;-58
2021/06/06 07:56:33;;;;;;;18.33;16.37;;;;;;;;;;5113344;28;20893;-56
2021/06/06 07:59:00;;;;;;;20.10;17.27;;;;;;;;;;5113685;28;20472;-56
2021/06/06 08:01:26;;;;;;;19.20;17.20;;;;;;;;;;5113714;28;20842;-56
2021/06/06 08:03:54;;;;;;;19.17;15.93;;;;;;;;;;5113432;28;20467;-57
2021/06/06 08:06:22;;;;;;;18.23;16.37;;;;;;;;;;5115505;28;20450;-56
2021/06/06 08:08:50;;;;;;;18.30;16.40;;;;;;;;;;5114975;28;20464;-57
2021/06/06 08:11:17;;;;;;;17.90;16.10;;;;;;;;;;5114456;28;20777;-57
2021/06/06 08:13:44;;;;;;;17.53;15.83;;;;;;;;;;5113597;28;20800;-56
2021/06/06 08:16:11;;;;;;;18.20;16.40;;;;;;;;;;5113383;28;20445;-57
2021/06/06 08:18:39;;;;;;;17.80;15.90;;;;;;;;;;5113170;28;20976;-56
2021/06/06 08:21:07;;;;;;;18.67;16.83;;;;;;;;;;5113186;28;20937;-56
2021/06/06 08:23:34;;;;;;;18.90;16.90;;;;;;;;;;5113436;28;20437;-57
2021/06/06 08:26:03;;;;;;;18.73;16.73;;;;;;;;;;5113217;28;20929;-57
2021/06/06 08:28:29;;;;;;;18.67;16.87;;;;;;;;;;5112957;28;20481;-56
2021/06/06 08:30:57;;;;;;;17.60;15.87;;;;;;;;;;5114176;28;20437;-57
2021/06/06 08:33:26;;;;;;;17.87;16.10;;;;;;;;;;5113350;28;20449;-57
2021/06/06 08:35:54;;;;;;;17.20;15.50;;;;;;;;;;5113033;28;20933;-57
2021/06/06 08:38:22;;;;;;;17.17;15.57;;;;;;;;;;5113354;28;20834;-58
2021/06/06 08:40:51;;;;;;;15.50;14.00;;;;;;;;;;5149050;22;20493;-57
2021/06/06 08:43:21;;;;;;;17.37;15.63;;;;;;;;;;5113620;28;20437;-58
2021/06/06 08:45:49;;;;;;;16.90;15.20;;;;;;;;;;5113431;28;20440;-57
2021/06/06 08:48:17;;;;;;;16.97;15.30;;;;;;;;;;5113125;28;20639;-58
2021/06/06 08:50:46;;;;;;;19.00;17.20;;;;;;;;;;5113450;28;20829;-57
2021/06/06 08:53:17;;;;;;;20.03;17.40;;;;;;;;;;5114180;28;20847;-57
2021/06/06 08:55:54;;;;;;;19.60;17.50;;;;;;;;;;5117235;28;20429;-57
2021/06/06 08:58:25;;;;;;;19.20;17.10;;;;;;;;;;5162070;22;20492;-58
2021/06/06 09:00:55;;;;;;;17.70;15.43;;;;;;;;;;5116762;28;20919;-58
2021/06/06 09:03:24;;;;;;;16.60;14.97;;;;;;;;;;5117037;28;20512;-56
2021/06/06 09:05:58;;;;;;;16.00;14.40;;;;;;;;;;5116891;28;20517;-57
2021/06/06 09:08:26;;;;;;;18.50;16.70;;;;;;;;;;5116874;28;20479;-56
2021/06/06 09:10:54;;;;;;;17.10;15.40;;;;;;;;;;5116985;28;20445;-58
2021/06/06 09:13:23;;;;;;;15.33;13.90;;;;;;;;;;5116523;28;20450;-57
2021/06/06 09:15:51;;;;;;;18.33;16.53;;;;;;;;;;5116646;28;20453;-58
2021/06/06 09:18:20;;;;;;;16.43;14.67;;;;;;;;;;5116220;28;20473;-58
2021/06/06 09:20:47;;;;;;;17.73;16.00;;;;;;;;;;5116361;28;20441;-58
2021/06/06 09:23:16;;;;;;;16.27;14.67;;;;;;;;;;5116466;28;20445;-58
2021/06/06 09:25:43;;;;;;;17.20;15.50;;;;;;;;;;5116599;28;20473;-57
2021/06/06 09:28:13;;;;;;;17.60;15.90;;;;;;;;;;5116449;28;20481;-58
2021/06/06 09:30:42;;;;;;;18.40;16.53;;;;;;;;;;5118184;28;20445;-58
2021/06/06 09:33:11;;;;;;;17.10;15.50;;;;;;;;;;5118163;28;20452;-58
2021/06/06 09:35:39;;;;;;;16.63;15.10;;;;;;;;;;5116282;28;20924;-57
2021/06/06 09:38:11;;;;;;;14.83;13.33;;;;;;;;;;5116514;28;20438;-57
2021/06/06 09:40:39;;;;;;;14.77;13.30;;;;;;;;;;5116488;28;20459;-57
2021/06/06 09:43:05;;;;;;;14.60;13.20;;;;;;;;;;5116013;28;20442;-57
2021/06/06 09:45:33;;;;;;;15.93;14.40;;;;;;;;;;5116314;28;20484;-58
2021/06/06 09:48:04;;;;;;;15.27;13.87;;;;;;;;;;5116118;28;20473;-57
2021/06/06 09:50:32;;;;;;;16.70;15.00;;;;;;;;;;5115768;28;20900;-58
2021/06/06 09:53:09;;;;;;;18.07;16.17;;;;;;;;;;5115968;28;20452;-57
2021/06/06 09:55:36;;;;;;;16.03;14.43;;;;;;;;;;5115873;28;20848;-58
2021/06/06 09:58:08;;;;;;;17.50;15.40;;;;;;;;;;5115347;28;20946;-57
2021/06/06 10:00:36;;;;;;;19.10;17.20;;;;;;;;;;5115671;28;20798;-58
2021/06/06 10:03:07;;;;;;;17.57;15.83;;;;;;;;;;5115513;28;20449;-58
2021/06/06 10:05:35;;;;;;;18.23;16.23;;;;;;;;;;5151111;22;20500;-57
2021/06/06 10:08:03;;;;;;;17.97;16.27;;;;;;;;;;5116572;28;20477;-57
2021/06/06 10:10:32;;;;;;;18.77;15.43;;;;;;;;;;5116032;28;20499;-57
2021/06/06 10:13:01;;;;;;;16.10;14.50;;;;;;;;;;5116356;28;20452;-57
2021/06/06 10:15:33;;;;;;;17.50;15.43;;;;;;;;;;5115657;28;20441;-57
2021/06/06 10:18:02;;;;;;;17.33;15.63;;;;;;;;;;5155058;22;20452;-55
2021/06/06 10:20:32;;;;;;;17.10;15.13;;;;;;;;;;5115309;28;20462;-57
2021/06/06 10:23:06;;;;;;;16.80;15.10;;;;;;;;;;5115422;28;20880;-56
2021/06/06 10:25:37;;;;;;;17.30;15.30;;;;;;;;;;5115287;28;20774;-56
2021/06/06 10:28:06;;;;;;;17.50;15.60;;;;;;;;;;5114810;28;20473;-57
2021/06/06 10:30:34;;;;;;;19.00;17.10;;;;;;;;;;5114763;28;20989;-56
2021/06/06 10:33:10;;;;;;;19.73;17.63;;;;;;;;;;5140513;22;20497;-57
2021/06/06 10:35:38;;;;;;;19.23;17.43;;;;;;;;;;5116200;28;20449;-58
2021/06/06 10:38:05;;;;;;;19.20;17.20;;;;;;;;;;5116430;28;20443;-62
2021/06/06 10:40:35;;;;;;;19.50;17.60;;;;;;;;;;5119632;28;20449;-57
2021/06/06 10:43:05;;;;;;;20.70;18.57;;;;;;;;;;5116493;28;20465;-57
2021/06/06 10:45:34;;;;;;;19.10;17.10;;;;;;;;;;5117151;28;20433;-58
2021/06/06 10:48:02;;;;;;;19.60;17.50;;;;;;;;;;5115432;28;20477;-57
2021/06/06 10:50:32;;;;;;;19.00;17.00;;;;;;;;;;5145318;22;20550;-57
2021/06/06 10:53:11;;;;;;;15.97;14.37;;;;;;;;;;5115689;28;20452;-57
2021/06/06 10:55:46;;;;;;;18.00;15.83;;;;;;;;;;5114615;28;20428;-56
2021/06/06 10:58:18;;;;;;;18.20;16.33;;;;;;;;;;5114327;28;20428;-56
2021/06/06 11:00:56;;;;;;;18.30;16.23;;;;;;;;;;5114513;28;21040;-56
2021/06/06 11:03:27;;;;;;;17.70;15.90;;;;;;;;;;5115763;28;20471;-54
2021/06/06 11:05:55;;;;;;;19.10;15.90;;;;;;;;;;5114146;28;20452;-56
2021/06/06 11:08:40;;;;;;;18.07;16.27;;;;;;;;;;5114126;28;20529;-57
2021/06/06 11:11:17;;;;;;;17.63;15.63;;;;;;;;;;5114089;28;20836;-56
2021/06/06 11:13:45;;;;;;;16.43;14.63;;;;;;;;;;5114345;28;20426;-57
2021/06/06 11:16:22;;;;;;;17.53;14.93;;;;;;;;;;5113844;28;20437;-57
2021/06/06 11:18:50;;;;;;;16.00;14.50;;;;;;;;;;5114890;28;20429;-56
2021/06/06 11:21:17;;;;;;;15.10;13.80;;;;;;;;;;5113909;28;20457;-57
2021/06/06 11:23:55;;;;;;;14.43;13.10;;;;;;;;;;5113395;28;20457;-56
2021/06/06 11:26:24;;;;;;;15.37;13.87;;;;;;;;;;5149008;22;20497;-58
2021/06/06 11:29:09;;;;;;;16.40;14.80;;;;;;;;;;5113880;28;20488;-58
2021/06/06 11:31:37;;;;;;;16.33;14.90;;;;;;;;;;5114479;28;21083;-57
2021/06/06 11:34:05;;;;;;;17.30;15.60;;;;;;;;;;5114131;28;20445;-57
2021/06/06 11:36:33;;;;;;;17.60;15.80;;;;;;;;;;5114535;28;20535;-56
2021/06/06 11:39:11;;;;;;;21.80;16.43;;;;;;;;;;5150320;22;20490;-58
2021/06/06 11:41:42;;;;;;;15.97;14.37;;;;;;;;;;5113576;28;20436;-58
2021/06/06 11:44:10;;;;;;;16.57;14.97;;;;;;;;;;5113787;28;20457;-58
2021/06/06 11:46:40;;;;;;;16.33;14.83;;;;;;;;;;5113512;28;20445;-56
2021/06/06 11:49:17;;;;;;;17.07;14.83;;;;;;;;;;5113371;28;20491;-57
2021/06/06 11:51:47;;;;;;;17.00;15.40;;;;;;;;;;5113485;28;20436;-57
2021/06/06 11:54:21;;;;;;;15.27;13.87;;;;;;;;;;5113747;28;20566;-57
2021/06/06 11:56:50;;;;;;;15.67;14.17;;;;;;;;;;5113762;28;20425;-57
2021/06/06 11:59:20;;;;;;;17.07;15.47;;;;;;;;;;5113575;28;20469;-57
2021/06/06 12:01:57;;;;;;;17.60;15.90;;;;;;;;;;5113670;28;20855;-57
2021/06/06 12:04:29;;;;;;;18.77;16.93;;;;;;;;;;5113351;28;20901;-57
2021/06/06 12:06:56;;;;;;;18.03;16.23;;;;;;;;;;5113210;28;20445;-57
2021/06/06 12:09:25;;;;;;;20.33;18.33;;;;;;;;;;5129502;22;20497;-57
2021/06/06 12:11:53;;;;;;;20.47;18.27;;;;;;;;;;5113482;28;20445;-57
2021/06/06 12:14:22;;;;;;;20.17;18.23;;;;;;;;;;5113538;28;20441;-57
2021/06/06 12:16:52;;;;;;;19.63;17.63;;;;;;;;;;5114034;28;20788;-57
2021/06/06 12:19:22;;;;;;;20.17;17.87;;;;;;;;;;5113369;28;20471;-56
2021/06/06 12:21:49;;;;;;;20.97;18.87;;;;;;;;;;5113492;28;20530;-56
2021/06/06 12:24:21;;;;;;;20.80;18.60;;;;;;;;;;5113494;28;20445;-58
2021/06/06 12:26:51;;;;;;;22.00;19.63;;;;;;;;;;5149655;22;20494;-58
2021/06/06 12:29:26;;;;;;;21.43;19.33;;;;;;;;;;5116780;28;20453;-58
2021/06/06 12:31:53;;;;;;;20.37;17.90;;;;;;;;;;5117969;28;20478;-57
2021/06/06 12:34:22;;;;;;;21.40;18.27;;;;;;;;;;5118002;28;20441;-57
2021/06/06 12:36:50;;;;;;;20.43;18.33;;;;;;;;;;5117545;28;20468;-56
2021/06/06 12:39:18;;;;;;;20.33;18.20;;;;;;;;;;5117969;28;20437;-56
2021/06/06 12:41:46;;;;;;;21.73;19.60;;;;;;;;;;5118978;28;20486;-58
2021/06/06 12:44:14;;;;;;;21.90;19.60;;;;;;;;;;5119146;28;20454;-57
2021/06/06 12:46:50;;;;;;;22.07;19.77;;;;;;;;;;5118340;28;20826;-58
2021/06/06 12:49:17;;;;;;;22.83;20.07;;;;;;;;;;5117453;28;20520;-58
2021/06/06 12:51:47;;;;;;;24.50;20.90;;;;;;;;;;5117192;28;20437;-58
2021/06/06 12:54:16;;;;;;;25.50;21.10;;;;;;;;;;5117193;28;20441;-59
2021/06/06 12:56:43;;;;;;;22.73;20.10;;;;;;;;;;5117316;28;20530;-58
2021/06/06 12:59:13;;;;;;;22.63;20.23;;;;;;;;;;5117007;28;20956;-59
2021/06/06 13:01:40;;;;;;;25.90;22.60;;;;;;;;;;5117728;28;20450;-61
2021/06/06 13:04:21;;;;;;;24.80;21.07;;;;;;;;;;5117380;28;20441;-60
2021/06/06 13:06:49;;;;;;;28.87;24.00;;;;;;;;;;5117014;28;20468;-58
2021/06/06 13:09:20;;;;;;;27.53;22.93;;;;;;;;;;5117470;28;20853;-58
2021/06/06 13:11:48;;;;;;;29.97;23.60;;;;;;;;;;5116885;28;20433;-58
2021/06/06 13:14:37;;;;;;;28.53;22.43;;;;;;;;;;5117267;28;20441;-58
2021/06/06 13:17:08;;;;;;;33.03;24.43;;;;;;;;;;5166404;22;20489;-57
2021/06/06 13:19:37;;;;;;;29.20;23.77;;;;;;;;;;5142218;22;20524;-59
2021/06/06 13:22:23;;;;;;;29.37;22.90;;;;;;;;;;5116730;28;20943;-58
2021/06/06 13:24:50;;;;;;;32.67;24.50;;;;;;;;;;5117043;28;20432;-58
2021/06/06 13:27:35;;;;;;;27.40;22.30;;;;;;;;;;5116563;28;20525;-57
2021/06/06 13:30:13;;;;;;;31.30;23.53;;;;;;;;;;5116923;28;20822;-58
2021/06/06 13:32:39;;;;;;;31.97;24.87;;;;;;;;;;5117143;28;20430;-59
2021/06/06 13:35:08;;;;;;;33.27;26.00;;;;;;;;;;5116678;28;20445;-59
2021/06/06 13:37:36;;;;;;;31.67;25.83;;;;;;;;;;5117497;28;20441;-59
2021/06/06 13:40:07;;;;;;;33.47;26.63;;;;;;;;;;5115995;28;20504;-59
2021/06/06 13:42:34;;;;;;;28.13;23.10;;;;;;;;;;5116582;28;20422;-58
2021/06/06 13:45:01;;;;;;;28.63;24.97;;;;;;;;;;5116564;28;20484;-57
2021/06/06 13:47:29;;;;;;;30.83;24.33;;;;;;;;;;5116267;28;20836;-59
2021/06/06 13:49:56;;;;;;;34.20;25.63;;;;;;;;;;5118057;28;20461;-60
2021/06/06 13:52:24;;;;;;;30.67;23.83;;;;;;;;;;5116194;28;20437;-59
2021/06/06 13:54:52;;;;;;;33.50;26.17;;;;;;;;;;5117560;28;20457;-59
2021/06/06 14:00:05;;;;;;;29.23;25.27;;;;;;;;;;5053632;28;20895;-59
2021/06/06 14:02:32;;;;;;;30.27;24.00;;;;;;;;;;5055046;28;20440;-56
2021/06/06 14:04:59;;;;;;;29.80;23.90;;;;;;;;;;5054792;28;20444;-57
2021/06/06 14:07:27;;;;;;;29.50;24.10;;;;;;;;;;5054752;28;20475;-56
2021/06/06 14:09:55;;;;;;;27.63;24.60;;;;;;;;;;5034907;28;20465;-57
2021/06/06 14:12:22;;;;;;;34.60;25.40;;;;;;;;;;5034957;28;20453;-57
2021/06/06 14:14:48;;;;;;;37.60;26.53;;;;;;;;;;5035153;28;20448;-57
2021/06/06 14:17:15;;;;;;;34.53;27.30;;;;;;;;;;5035154;28;20990;-57
2021/06/06 14:19:42;;;;;;;35.90;27.20;;;;;;;;;;5035146;28;20480;-58
2021/06/06 14:22:09;;;;;;;37.20;27.30;;;;;;;;;;5034941;28;20449;-58
2021/06/06 14:24:37;;;;;;;33.33;26.43;;;;;;;;;;5034537;28;20561;-58
2021/06/06 14:27:06;;;;;;;37.33;28.77;;;;;;;;;;5133642;22;20486;-59
2021/06/06 14:29:33;;;;;;;34.27;27.90;;;;;;;;;;5094944;28;20535;-57